KAKQ/AKQ METAR and TAF weather

Enter ICAO airport designator
Station Type Date Time Source
KAKQ METAR 2020/01/21 17:54 UTC NOAA

KAKQ 211754Z AUTO VRB05KT 10SM CLR 02/M11 A3045 RMK AO2 SLP312 T00171111 10017 21044 58013


Station Type Date Time Source
KAKQ Decoded METAR 2020/01/21 17:54 UTC NOAA

WAKEFIELD MUNICIPAL AIRPOR, VA, United States (KAKQ) 36-59N 077-00W 33M
Jan 21, 2020 - 12:54 PM EST / 2020.01.21 1754 UTC
Wind: Variable at 6 MPH (5 KT):0
Visibility: 10 mile(s):0
Sky conditions: clear
Temperature: 35.1 F (1.7 C)
Dew Point: 12.0 F (-11.1 C)
Relative Humidity: 37%
Pressure (altimeter): 30.45 in. Hg (1031 hPa)
Pressure tendency: 0.04 inches (1.3 hPa) lower than three hours ago
ob: KAKQ 211754Z AUTO VRB05KT 10SM CLR 02/M11 A3045 RMK AO2 SLP312 T00171111 10017 21044 58013
cycle: 18

Station Type Date Time Source
KAKQ TAF UTC NOAA

Error!

Example: see airport list